createdAt,value
2023-05-19T00:01:03.069Z,100733.29
2023-05-19T00:03:33.358Z,100734.32
2023-05-19T00:06:05.451Z,100732.58
2023-05-19T00:08:34.026Z,100731.05
2023-05-19T00:11:06.209Z,100731.33
2023-05-19T00:13:35.933Z,100731.01
2023-05-19T00:16:06.083Z,100726.70
2023-05-19T00:18:34.970Z,100723.36
2023-05-19T00:21:03.811Z,100720.73
2023-05-19T00:23:32.680Z,100718.18
2023-05-19T00:26:01.529Z,100713.23
2023-05-19T00:28:30.465Z,100715.23
2023-05-19T00:30:59.350Z,100716.98
2023-05-19T00:33:28.231Z,100715.47
2023-05-19T00:35:57.099Z,100712.91
2023-05-19T00:38:26.368Z,100711.09
2023-05-19T00:40:55.213Z,100713.29
2023-05-19T00:43:23.964Z,100713.91
2023-05-19T00:45:53.117Z,100710.46
2023-05-19T00:48:21.864Z,100706.05
2023-05-19T00:50:50.933Z,100700.23
2023-05-19T00:53:19.808Z,100704.85
2023-05-19T00:55:49.115Z,100699.52
2023-05-19T00:58:19.282Z,100698.23
2023-05-19T01:00:49.080Z,100695.08
2023-05-19T01:03:19.751Z,100695.13
2023-05-19T01:05:50.112Z,100694.18
2023-05-19T01:08:20.484Z,100698.19
2023-05-19T01:10:49.408Z,100693.66
2023-05-19T01:13:18.180Z,100695.73
2023-05-19T01:15:59.529Z,100696.24
2023-05-19T01:18:39.150Z,100695.61
2023-05-19T01:21:26.176Z,100695.12
2023-05-19T01:24:14.107Z,100699.11
2023-05-19T01:27:05.570Z,100693.20
2023-05-19T01:29:47.141Z,100697.27
2023-05-19T01:32:19.703Z,100698.12
2023-05-19T01:34:50.843Z,100703.22
2023-05-19T01:37:21.300Z,100702.47
2023-05-19T01:39:55.458Z,100700.90
2023-05-19T01:42:26.151Z,100703.50
2023-05-19T01:44:56.052Z,100700.30
2023-05-19T01:47:26.539Z,100700.17
2023-05-19T01:49:55.305Z,100695.54
2023-05-19T01:52:24.105Z,100699.17
2023-05-19T01:54:52.852Z,100694.77
2023-05-19T01:57:31.730Z,100692.75
2023-05-19T02:00:08.029Z,100688.75
2023-05-19T02:02:54.093Z,100687.73
2023-05-19T02:05:31.462Z,100688.80
2023-05-19T02:08:06.299Z,100683.45
2023-05-19T02:10:40.239Z,100683.06
2023-05-19T02:13:14.670Z,100684.39
2023-05-19T02:15:45.304Z,100679.52
2023-05-19T02:18:18.241Z,100677.83
2023-05-19T02:20:51.871Z,100678.06
2023-05-19T02:23:20.615Z,100678.19
2023-05-19T02:25:49.293Z,100677.85
2023-05-19T02:28:18.191Z,100676.69
2023-05-19T02:30:47.018Z,100675.27
2023-05-19T02:33:15.937Z,100678.41
2023-05-19T02:35:45.203Z,100677.19
2023-05-19T02:38:13.881Z,100676.44
2023-05-19T02:40:42.566Z,100671.54
2023-05-19T02:43:11.418Z,100667.09
2023-05-19T02:45:40.356Z,100667.92
2023-05-19T02:48:09.224Z,100667.34
2023-05-19T02:50:37.992Z,100662.32
2023-05-19T02:53:08.940Z,100665.29
2023-05-19T02:55:37.830Z,100668.20
2023-05-19T02:58:06.913Z,100669.55
2023-05-19T03:00:37.311Z,100669.98
2023-05-19T03:03:06.209Z,100668.33
2023-05-19T03:05:35.557Z,100669.97
2023-05-19T03:08:04.757Z,100672.35
2023-05-19T03:10:33.734Z,100669.66
2023-05-19T03:13:02.614Z,100671.22
2023-05-19T03:15:31.826Z,100674.73
2023-05-19T03:18:00.591Z,100675.41
2023-05-19T03:20:30.451Z,100677.52
2023-05-19T03:22:59.709Z,100676.66
2023-05-19T03:25:29.377Z,100673.83
2023-05-19T03:27:58.261Z,100672.23
2023-05-19T03:30:27.222Z,100667.81
2023-05-19T03:33:05.901Z,100672.03
2023-05-19T03:35:35.014Z,100679.34
2023-05-19T03:38:04.246Z,100679.72
2023-05-19T03:40:33.413Z,100674.16
2023-05-19T03:43:06.897Z,100675.20
2023-05-19T03:45:39.909Z,100668.92
2023-05-19T03:48:26.180Z,100678.12
2023-05-19T03:51:18.671Z,100676.62
2023-05-19T03:53:48.645Z,100679.33
2023-05-19T03:56:17.694Z,100681.80
2023-05-19T03:58:47.719Z,100679.83
2023-05-19T04:01:17.051Z,100681.20
2023-05-19T04:03:45.991Z,100678.15
2023-05-19T04:06:14.672Z,100682.95
2023-05-19T04:08:44.072Z,100682.25
2023-05-19T04:11:13.387Z,100682.38
2023-05-19T04:13:42.110Z,100686.15
2023-05-19T04:16:11.062Z,100686.86
2023-05-19T04:18:40.022Z,100687.17
2023-05-19T04:21:08.951Z,100687.92
2023-05-19T04:23:37.656Z,100690.54
2023-05-19T04:26:06.861Z,100683.84
2023-05-19T04:28:38.477Z,100686.00
2023-05-19T04:31:10.377Z,100688.13
2023-05-19T04:33:39.618Z,100683.95
2023-05-19T04:36:10.812Z,100686.02
2023-05-19T04:38:39.936Z,100683.77
2023-05-19T04:41:11.463Z,100682.36
2023-05-19T04:43:41.338Z,100685.11
2023-05-19T04:46:13.914Z,100685.02
2023-05-19T04:48:43.453Z,100683.74
2023-05-19T04:51:13.598Z,100681.43
2023-05-19T04:53:43.282Z,100682.71
2023-05-19T04:56:14.609Z,100690.98
2023-05-19T04:58:44.101Z,100697.27
2023-05-19T05:01:15.174Z,100700.02
2023-05-19T05:03:44.454Z,100695.59
2023-05-19T05:06:13.587Z,100696.30
2023-05-19T05:08:42.389Z,100693.02
2023-05-19T05:11:12.773Z,100694.52
2023-05-19T05:13:42.571Z,100693.46
2023-05-19T05:16:14.369Z,100694.76
2023-05-19T05:18:44.630Z,100696.85
2023-05-19T05:21:14.816Z,100696.34
2023-05-19T05:23:44.674Z,100698.38
2023-05-19T05:26:18.690Z,100700.84
2023-05-19T05:28:49.022Z,100696.67
2023-05-19T05:31:18.131Z,100699.71
2023-05-19T05:33:47.481Z,100699.76
2023-05-19T05:36:17.061Z,100699.80
2023-05-19T05:38:46.059Z,100702.05
2023-05-19T05:41:15.257Z,100700.00
2023-05-19T05:43:44.169Z,100702.99
2023-05-19T05:46:13.131Z,100699.96
2023-05-19T05:48:43.689Z,100707.59
2023-05-19T05:51:13.850Z,100702.98
2023-05-19T05:53:44.816Z,100694.97
2023-05-19T05:56:15.961Z,100694.24
2023-05-19T05:58:50.030Z,100695.28
2023-05-19T06:01:20.371Z,100698.11
2023-05-19T06:03:49.290Z,100698.42
2023-05-19T06:06:21.686Z,100701.80
2023-05-19T06:08:52.963Z,100703.14
2023-05-19T06:11:22.410Z,100704.86
2023-05-19T06:13:51.234Z,100705.85
2023-05-19T06:16:58.196Z,100713.73
2023-05-19T06:19:27.128Z,100715.36
2023-05-19T06:21:55.972Z,100715.94
2023-05-19T06:24:24.806Z,100713.20
2023-05-19T06:26:53.539Z,100717.66
2023-05-19T06:29:22.355Z,100725.92
2023-05-19T06:31:51.810Z,100730.65
2023-05-19T06:34:21.132Z,100726.78
2023-05-19T06:36:50.147Z,100729.79
2023-05-19T06:39:20.171Z,100728.42
2023-05-19T06:41:49.060Z,100728.82
2023-05-19T06:44:29.504Z,100728.02
2023-05-19T06:46:58.438Z,100732.28
2023-05-19T06:49:28.865Z,100729.05
2023-05-19T06:51:57.935Z,100730.83
2023-05-19T06:54:27.066Z,100731.23
2023-05-19T06:56:55.873Z,100731.19
2023-05-19T06:59:25.348Z,100734.39
2023-05-19T07:01:54.412Z,100736.54
2023-05-19T07:04:23.569Z,100735.94
2023-05-19T07:06:52.907Z,100732.65
2023-05-19T07:09:22.111Z,100730.63
2023-05-19T07:11:51.174Z,100728.83
2023-05-19T07:14:20.371Z,100727.08
2023-05-19T07:16:49.438Z,100725.60
2023-05-19T07:19:19.226Z,100719.13
2023-05-19T07:21:48.182Z,100719.11
2023-05-19T07:24:17.773Z,100710.09
2023-05-19T07:26:47.736Z,100707.58
2023-05-19T07:29:16.534Z,100706.45
2023-05-19T07:31:45.465Z,100707.16
2023-05-19T07:34:14.374Z,100700.66
2023-05-19T07:36:43.067Z,100702.59
2023-05-19T07:39:12.028Z,100705.42
2023-05-19T07:41:40.843Z,100710.17
2023-05-19T07:44:10.236Z,100712.61
2023-05-19T07:46:39.144Z,100713.69
2023-05-19T07:49:07.992Z,100713.88
2023-05-19T07:51:36.762Z,100714.77
2023-05-19T07:54:05.506Z,100719.71
2023-05-19T07:56:34.278Z,100715.05
2023-05-19T07:59:10.506Z,100716.26
2023-05-19T08:01:39.234Z,100724.46
2023-05-19T08:04:11.081Z,100718.80
2023-05-19T08:06:42.212Z,100727.38
2023-05-19T08:09:11.413Z,100720.96
2023-05-19T08:11:40.526Z,100718.65
2023-05-19T08:14:10.241Z,100720.67
2023-05-19T08:16:41.254Z,100719.23
2023-05-19T08:19:10.313Z,100720.64
2023-05-19T08:21:39.443Z,100718.41
2023-05-19T08:24:10.857Z,100717.05
2023-05-19T08:26:39.680Z,100710.20
2023-05-19T08:29:08.434Z,100713.96
2023-05-19T08:31:37.313Z,100709.44
2023-05-19T08:34:06.096Z,100710.64
2023-05-19T08:36:35.014Z,100710.06
2023-05-19T08:39:03.872Z,100711.54
2023-05-19T08:41:33.108Z,100715.52
2023-05-19T08:44:01.983Z,100711.13
2023-05-19T08:46:31.077Z,100712.05
2023-05-19T08:49:05.034Z,100718.67
2023-05-19T08:51:40.923Z,100718.09
2023-05-19T08:54:15.539Z,100721.52
2023-05-19T08:56:45.097Z,100717.27
2023-05-19T08:59:14.915Z,100717.42
2023-05-19T09:01:45.668Z,100714.39
2023-05-19T09:04:15.596Z,100717.27
2023-05-19T09:06:44.674Z,100716.23
2023-05-19T09:09:13.445Z,100715.65
2023-05-19T09:11:46.515Z,100718.23
2023-05-19T09:14:15.335Z,100719.83
2023-05-19T09:16:47.674Z,100717.02
2023-05-19T09:19:16.699Z,100714.44
2023-05-19T09:21:45.858Z,100710.80
2023-05-19T09:24:15.059Z,100709.29
2023-05-19T09:26:43.955Z,100710.65
2023-05-19T09:29:13.979Z,100707.70
2023-05-19T09:31:51.956Z,100711.48
2023-05-19T09:34:21.548Z,100713.71
2023-05-19T09:36:51.243Z,100708.73
2023-05-19T09:39:21.984Z,100705.52
2023-05-19T09:41:53.631Z,100705.88
2023-05-19T09:44:28.907Z,100707.52
2023-05-19T09:46:58.394Z,100705.34
2023-05-19T09:49:29.032Z,100708.66
2023-05-19T09:51:59.122Z,100708.55
2023-05-19T09:54:29.013Z,100704.12
2023-05-19T09:57:02.032Z,100703.60
2023-05-19T09:59:33.548Z,100702.66
2023-05-19T10:02:02.425Z,100702.95
2023-05-19T10:04:32.015Z,100705.70
2023-05-19T10:07:04.962Z,100705.52
2023-05-19T10:09:36.259Z,100699.26
2023-05-19T10:12:07.234Z,100692.94
2023-05-19T10:14:37.601Z,100692.60
2023-05-19T10:17:08.042Z,100691.45
2023-05-19T10:19:37.270Z,100690.08
2023-05-19T10:22:06.273Z,100690.35
2023-05-19T10:24:35.065Z,100688.67
2023-05-19T10:27:07.483Z,100687.42
2023-05-19T10:29:41.156Z,100684.57
2023-05-19T10:32:14.691Z,100686.56
2023-05-19T10:35:15.092Z,100685.73
2023-05-19T10:37:50.461Z,100681.31
2023-05-19T10:40:26.310Z,100682.29
2023-05-19T10:43:08.279Z,100681.08
2023-05-19T10:45:45.962Z,100682.13
2023-05-19T10:48:16.190Z,100680.60
2023-05-19T10:50:46.352Z,100680.16
2023-05-19T10:53:20.546Z,100682.97
2023-05-19T10:55:52.744Z,100678.75
2023-05-19T10:58:49.581Z,100683.91
2023-05-19T11:01:20.166Z,100680.72
2023-05-19T11:03:52.722Z,100681.00
2023-05-19T11:06:25.079Z,100682.66
2023-05-19T11:08:55.668Z,100684.25
2023-05-19T11:11:24.435Z,100683.23
2023-05-19T11:13:54.735Z,100681.96
2023-05-19T11:16:29.884Z,100683.50
2023-05-19T11:19:00.454Z,100687.38
2023-05-19T11:21:47.736Z,100688.43
2023-05-19T11:24:33.964Z,100683.91
2023-05-19T11:27:19.024Z,100683.36
2023-05-19T11:29:49.005Z,100681.96
2023-05-19T11:32:19.904Z,100683.07
2023-05-19T11:34:49.512Z,100681.71
2023-05-19T11:37:18.354Z,100678.10
2023-05-19T11:39:47.609Z,100679.70
2023-05-19T11:42:16.729Z,100677.40
2023-05-19T11:44:46.556Z,100675.33
2023-05-19T11:47:15.796Z,100672.95
2023-05-19T11:49:45.628Z,100672.54
2023-05-19T11:52:14.970Z,100671.06
2023-05-19T11:54:48.101Z,100669.98
2023-05-19T11:57:17.056Z,100672.36
2023-05-19T11:59:47.518Z,100671.65
2023-05-19T12:02:18.933Z,100671.85
2023-05-19T12:04:48.812Z,100670.05
2023-05-19T12:07:18.777Z,100668.93
2023-05-19T12:09:48.288Z,100670.59
2023-05-19T12:12:18.986Z,100669.71
2023-05-19T12:14:48.817Z,100667.95
2023-05-19T12:17:20.055Z,100665.02
2023-05-19T12:19:50.056Z,100666.27
2023-05-19T12:22:19.097Z,100666.33
2023-05-19T12:24:48.244Z,100663.92
2023-05-19T12:27:19.645Z,100663.03
2023-05-19T12:29:53.006Z,100666.13
2023-05-19T12:32:25.189Z,100662.98
2023-05-19T12:34:55.729Z,100661.75
2023-05-19T12:37:27.477Z,100661.55
2023-05-19T12:39:56.911Z,100657.35
2023-05-19T12:42:30.583Z,100656.08
2023-05-19T12:45:02.948Z,100655.39
2023-05-19T12:47:34.118Z,100652.71
2023-05-19T12:50:04.362Z,100651.09
2023-05-19T12:52:35.484Z,100646.64
2023-05-19T12:55:06.566Z,100646.22
2023-05-19T12:57:36.389Z,100647.64
2023-05-19T13:00:13.477Z,100650.48
2023-05-19T13:02:57.503Z,100650.45
2023-05-19T13:05:27.212Z,100648.00
2023-05-19T13:07:58.668Z,100647.23
2023-05-19T13:10:28.620Z,100646.35
2023-05-19T13:12:59.498Z,100639.74
2023-05-19T13:15:31.129Z,100644.87
2023-05-19T13:18:01.904Z,100642.86
2023-05-19T13:20:31.167Z,100642.20
2023-05-19T13:23:01.010Z,100641.05
2023-05-19T13:25:30.051Z,100638.90
2023-05-19T13:28:00.685Z,100642.70
2023-05-19T13:30:29.702Z,100644.54
2023-05-19T13:32:58.615Z,100641.61
2023-05-19T13:35:27.557Z,100639.41
2023-05-19T13:37:56.497Z,100636.98
2023-05-19T13:40:27.591Z,100636.75
2023-05-19T13:42:56.490Z,100633.42
2023-05-19T13:45:25.325Z,100631.39
2023-05-19T13:47:54.167Z,100635.52
2023-05-19T13:50:23.043Z,100634.66
2023-05-19T13:52:51.885Z,100637.23
2023-05-19T13:55:21.945Z,100637.80
2023-05-19T13:57:50.825Z,100642.54
2023-05-19T14:00:20.984Z,100641.13
2023-05-19T14:02:49.855Z,100642.16
2023-05-19T14:05:19.855Z,100643.05
2023-05-19T14:07:48.663Z,100645.89
2023-05-19T14:10:17.370Z,100643.39
2023-05-19T14:13:12.301Z,100639.73
2023-05-19T14:15:37.252Z,100638.95
2023-05-19T14:18:07.102Z,100633.74
2023-05-19T14:20:37.198Z,100633.55
2023-05-19T14:23:06.818Z,100635.83
2023-05-19T14:25:37.985Z,100638.88
2023-05-19T14:28:07.494Z,100635.91
2023-05-19T14:30:36.637Z,100641.05
2023-05-19T14:33:05.638Z,100640.76
2023-05-19T14:35:35.058Z,100635.38
2023-05-19T14:38:03.915Z,100634.77
2023-05-19T14:40:32.936Z,100641.31
2023-05-19T14:43:02.147Z,100638.63
2023-05-19T14:45:30.971Z,100640.19
2023-05-19T14:47:59.836Z,100643.21
2023-05-19T14:50:29.404Z,100643.64
2023-05-19T14:52:58.330Z,100641.48
2023-05-19T14:55:27.302Z,100643.63
2023-05-19T14:57:56.398Z,100642.83
2023-05-19T15:00:26.360Z,100642.49
2023-05-19T15:02:55.997Z,100645.44
2023-05-19T15:05:25.149Z,100645.59
2023-05-19T15:07:54.838Z,100647.17
2023-05-19T15:10:24.560Z,100645.22
2023-05-19T15:12:56.965Z,100642.83
2023-05-19T15:15:25.852Z,100649.60
2023-05-19T15:17:54.817Z,100647.72
2023-05-19T15:20:23.636Z,100649.80
2023-05-19T15:23:07.401Z,100648.80
2023-05-19T15:25:36.416Z,100651.84
2023-05-19T15:28:05.525Z,100649.17
2023-05-19T15:30:35.934Z,100644.16
2023-05-19T15:33:05.725Z,100644.31
2023-05-19T15:35:34.815Z,100647.91
2023-05-19T15:38:05.889Z,100645.59
2023-05-19T15:40:35.511Z,100643.56
2023-05-19T15:43:04.410Z,100639.38
2023-05-19T15:45:34.318Z,100635.86
2023-05-19T15:48:03.387Z,100633.68
2023-05-19T15:50:32.442Z,100628.77
2023-05-19T15:53:01.380Z,100626.98
2023-05-19T15:55:30.146Z,100624.10
2023-05-19T15:57:58.996Z,100617.66
2023-05-19T16:00:27.885Z,100617.91
2023-05-19T16:02:56.729Z,100621.21
2023-05-19T16:05:25.630Z,100623.08
2023-05-19T16:07:54.361Z,100624.73
2023-05-19T16:10:23.203Z,100627.41
2023-05-19T16:12:52.100Z,100629.73
2023-05-19T16:15:20.920Z,100633.96
2023-05-19T16:17:49.700Z,100634.61
2023-05-19T16:20:19.588Z,100636.64
2023-05-19T16:22:48.457Z,100635.19
2023-05-19T16:25:19.505Z,100633.35
2023-05-19T16:27:48.366Z,100631.25
2023-05-19T16:30:18.612Z,100636.27
2023-05-19T16:32:50.053Z,100635.96
2023-05-19T16:35:20.503Z,100632.21
2023-05-19T16:37:49.517Z,100630.54
2023-05-19T16:40:20.275Z,100630.24
2023-05-19T16:42:52.094Z,100628.45
2023-05-19T16:45:26.688Z,100626.98
2023-05-19T16:47:57.067Z,100623.69
2023-05-19T16:50:31.198Z,100624.84
2023-05-19T16:53:03.605Z,100626.68
2023-05-19T16:55:35.218Z,100628.64
2023-05-19T16:58:04.323Z,100626.60
2023-05-19T17:00:39.946Z,100629.81
2023-05-19T17:03:08.861Z,100630.90
2023-05-19T17:05:42.845Z,100632.73
2023-05-19T17:08:14.110Z,100639.09
2023-05-19T17:10:44.190Z,100640.61
2023-05-19T17:13:12.951Z,100639.27
2023-05-19T17:15:43.254Z,100639.67
2023-05-19T17:18:12.649Z,100644.15
2023-05-19T17:20:41.596Z,100643.40
2023-05-19T17:23:14.683Z,100641.44
2023-05-19T17:25:43.946Z,100639.20
2023-05-19T17:28:12.702Z,100641.14
2023-05-19T17:30:41.693Z,100638.36
2023-05-19T17:33:10.960Z,100642.35
2023-05-19T17:35:42.475Z,100641.83
2023-05-19T17:38:15.092Z,100642.42
2023-05-19T17:40:45.933Z,100644.59
2023-05-19T17:43:15.131Z,100644.48
2023-05-19T17:45:45.278Z,100645.37
2023-05-19T17:48:15.424Z,100643.20
2023-05-19T17:50:48.091Z,100643.91
2023-05-19T17:53:17.886Z,100641.03
2023-05-19T17:55:51.672Z,100642.13
2023-05-19T17:58:26.029Z,100641.45
2023-05-19T18:01:05.433Z,100642.00
2023-05-19T18:03:36.179Z,100644.55
2023-05-19T18:06:11.160Z,100640.91
2023-05-19T18:09:05.961Z,100650.44
2023-05-19T18:11:38.442Z,100651.60
2023-05-19T18:14:07.297Z,100650.92
2023-05-19T18:16:47.391Z,100649.16
2023-05-19T18:19:37.824Z,100652.11
2023-05-19T18:22:09.851Z,100656.73
2023-05-19T18:25:25.126Z,100656.61
2023-05-19T18:27:56.608Z,100655.76
2023-05-19T18:30:43.206Z,100657.09
2023-05-19T18:33:12.191Z,100662.00
2023-05-19T18:35:55.469Z,100662.05
2023-05-19T18:38:30.768Z,100666.10
2023-05-19T18:41:07.461Z,100671.16
2023-05-19T18:43:40.891Z,100677.20
2023-05-19T18:46:17.342Z,100678.98
2023-05-19T18:49:02.055Z,100684.06
2023-05-19T18:51:48.326Z,100684.00
2023-05-19T18:54:23.538Z,100688.04
2023-05-19T18:56:52.446Z,100688.02
2023-05-19T18:59:24.932Z,100688.44
2023-05-19T19:01:58.477Z,100690.50
2023-05-19T19:04:35.907Z,100691.99
2023-05-19T19:07:09.468Z,100688.52
2023-05-19T19:09:51.595Z,100694.73
2023-05-19T19:12:24.025Z,100693.16
2023-05-19T19:15:03.118Z,100692.39
2023-05-19T19:17:33.193Z,100691.85
2023-05-19T19:20:02.214Z,100693.91
2023-05-19T19:22:42.389Z,100698.47
2023-05-19T19:25:33.110Z,100699.06
2023-05-19T19:28:08.644Z,100702.98
2023-05-19T19:30:39.041Z,100702.52
2023-05-19T19:33:11.767Z,100703.27
2023-05-19T19:35:41.332Z,100703.73
2023-05-19T19:38:11.736Z,100701.98
2023-05-19T19:40:40.707Z,100697.85
2023-05-19T19:43:09.499Z,100699.20
2023-05-19T19:45:39.080Z,100699.28
2023-05-19T19:48:19.151Z,100698.05
2023-05-19T19:50:52.933Z,100698.36
2023-05-19T19:53:21.934Z,100699.60
2023-05-19T19:55:57.794Z,100702.73
2023-05-19T19:58:27.908Z,100703.22
2023-05-19T20:01:05.542Z,100704.71
2023-05-19T20:03:34.880Z,100702.66
2023-05-19T20:06:03.785Z,100703.63
2023-05-19T20:08:32.540Z,100707.67
2023-05-19T20:11:01.182Z,100713.31
2023-05-19T20:13:30.703Z,100711.05
2023-05-19T20:16:00.976Z,100712.05
2023-05-19T20:18:29.898Z,100711.17
2023-05-19T20:20:58.896Z,100711.35
2023-05-19T20:23:27.613Z,100710.16
2023-05-19T20:26:10.802Z,100705.17
2023-05-19T20:28:40.632Z,100705.70
2023-05-19T20:31:09.379Z,100705.45
2023-05-19T20:33:38.277Z,100704.55
2023-05-19T20:36:07.174Z,100707.16
2023-05-19T20:38:35.833Z,100706.70
2023-05-19T20:41:04.547Z,100711.77
2023-05-19T20:43:33.252Z,100711.17
2023-05-19T20:46:03.209Z,100708.70
2023-05-19T20:48:32.032Z,100708.74
2023-05-19T20:51:00.906Z,100706.01
2023-05-19T20:53:29.701Z,100706.38
2023-05-19T20:55:58.359Z,100706.94
2023-05-19T20:58:29.573Z,100702.72
2023-05-19T21:00:58.418Z,100704.45
2023-05-19T21:03:27.929Z,100702.57
2023-05-19T21:05:56.995Z,100702.20
2023-05-19T21:08:26.122Z,100703.86
2023-05-19T21:10:54.921Z,100707.08
2023-05-19T21:13:23.602Z,100700.97
2023-05-19T21:15:52.279Z,100708.30
2023-05-19T21:18:21.022Z,100710.11
2023-05-19T21:20:49.708Z,100704.25
2023-05-19T21:23:18.476Z,100708.12
2023-05-19T21:25:47.166Z,100706.31
2023-05-19T21:28:16.044Z,100704.77
2023-05-19T21:30:48.788Z,100705.92
2023-05-19T21:33:17.635Z,100710.10
2023-05-19T21:35:46.439Z,100706.92
2023-05-19T21:38:23.294Z,100706.81
2023-05-19T21:40:53.652Z,100709.31
2023-05-19T21:43:22.651Z,100708.76
2023-05-19T21:45:51.333Z,100703.74
2023-05-19T21:48:21.707Z,100705.45
2023-05-19T21:50:54.171Z,100709.52
2023-05-19T21:53:22.927Z,100711.55
2023-05-19T21:55:51.776Z,100706.63
2023-05-19T21:58:20.493Z,100707.98
2023-05-19T22:00:50.419Z,100708.25
2023-05-19T22:03:19.206Z,100707.48
2023-05-19T22:05:50.005Z,100710.00
2023-05-19T22:08:19.653Z,100710.10
2023-05-19T22:10:51.162Z,100707.41
2023-05-19T22:13:20.141Z,100707.22
2023-05-19T22:15:49.105Z,100712.43
2023-05-19T22:18:17.758Z,100707.46
2023-05-19T22:20:46.456Z,100699.66
2023-05-19T22:23:15.304Z,100695.77
2023-05-19T22:25:44.013Z,100696.45
2023-05-19T22:28:12.792Z,100691.65
2023-05-19T22:30:41.820Z,100691.09
2023-05-19T22:33:10.976Z,100692.35
2023-05-19T22:35:39.779Z,100695.25
2023-05-19T22:38:10.458Z,100693.69
2023-05-19T22:40:39.611Z,100694.95
2023-05-19T22:43:08.454Z,100691.95
2023-05-19T22:45:37.484Z,100690.52
2023-05-19T22:48:07.150Z,100687.42
2023-05-19T22:50:35.874Z,100685.29
2023-05-19T22:53:04.624Z,100687.84
2023-05-19T22:55:33.485Z,100688.63
2023-05-19T22:58:02.441Z,100686.85
2023-05-19T23:00:31.180Z,100682.62
2023-05-19T23:03:00.098Z,100678.68
2023-05-19T23:05:28.969Z,100679.07
2023-05-19T23:07:57.728Z,100675.31
2023-05-19T23:10:26.561Z,100674.22
2023-05-19T23:12:55.379Z,100670.69
2023-05-19T23:15:24.136Z,100671.75
2023-05-19T23:17:52.956Z,100673.46
2023-05-19T23:20:21.610Z,100675.30
2023-05-19T23:22:50.342Z,100679.27
2023-05-19T23:25:19.162Z,100677.54
2023-05-19T23:27:47.915Z,100674.98
2023-05-19T23:30:16.795Z,100676.16
2023-05-19T23:32:45.562Z,100675.87
2023-05-19T23:35:18.127Z,100672.80
2023-05-19T23:37:46.800Z,100670.88
2023-05-19T23:40:16.688Z,100670.61
2023-05-19T23:42:45.534Z,100674.67
2023-05-19T23:45:14.333Z,100673.50
2023-05-19T23:47:43.066Z,100670.90
2023-05-19T23:50:11.908Z,100669.85
2023-05-19T23:52:40.577Z,100665.72
2023-05-19T23:55:12.064Z,100663.38
2023-05-19T23:57:40.715Z,100659.91
